Huvudsida
METAR-TAF:

METAR-TAF

Flygplatser :

Ljungbyhed, Sverige

latitud: 56-04N, longitud: 013-12E, höjd: 43 m

Aktuellt väderrapport

Denna rapport gjordes för 13 minuter sedan, klockan 08:50 UTC
Vind 10 kt från väst/nordväst
Temperatur 5°C
Fuktighet 100%
Tryck 1025 hPa
Sikt 10 km eller mer
Inga moln under 1 500 m eller inga cumulonimbus

METAR: ESTL 220850Z 30010KT CAVOK 05/05 Q1025

Tid: 10:03 (09:03 UTC)

Väderprognos

Denna rapport gjordes för 52 minuter sedan, klockan 08:11 UTC
Prognos gäller från 22 kl. 09 UTC till 22 kl. 16 UTC
Vind 13 kt från nordväst
Sikt 10 km eller mer
Spridda moln på en höjd av 2500 ft

TAF: ESTL 220811Z 2209/2216 31013KT 9999 SCT025

Aktuella väderrapporter och prognoser från 4000 flygplatser (METAR- och TAF-rapporter).

De tillgängliga stationerna syns som gula och röda prickar på kartan.

För musen över prickarna för att se namnen på stationerna.

Klicka sedan för att få väderrapporter och prognoser.

För att ändra kartan: Klicka på de gröna knapparna med ett svart kors på för att zooma in; den gröna knappen med ett streck på för att zooma ut; eller på de gröna pilarna för angränsande kartor.


METAR-TAF: